CYYZ/YYZ METAR and TAF weather

Enter ICAO airport designator
Station Type Date Time Source
CYYZ METAR 2019/03/26 12:00 UTC NOAA

CYYZ 261200Z 01010KT 15SM SKC M03/M11 A3039 RMK SLP301


Station Type Date Time Source
CYYZ Decoded METAR 2019/03/26 12:00 UTC NOAA

Toronto Pearson Int'L. Ont., Canada (CYYZ) 43-40N 079-38W 173M
Mar 26, 2019 - 08:00 AM EDT / 2019.03.26 1200 UTC
Wind: from the N (010 degrees) at 12 MPH (10 KT):0
Visibility: 15 mile(s):0
Sky conditions: clear
Temperature: 26 F (-3 C)
Windchill: 15 F (-9 C):1
Dew Point: 12 F (-11 C)
Relative Humidity: 53%
Pressure (altimeter): 30.39 in. Hg (1029 hPa)
ob: CYYZ 261200Z 01010KT 15SM SKC M03/M11 A3039 RMK SLP301
cycle: 12

Station Type Date Time Source
CYYZ TAF 2019/03/26 12:42 UTC NOAA

TAF CYYZ 261139Z 2612/2718 36009KT P6SM SKC
FM261700 34008KT P6SM SKC
FM262200 VRB03KT P6SM SKC
BECMG 2713/2715 22012KT
RMK NXT FCST BY 261500Z

Example: see airport list